createdAt,value
2017-09-13T00:00:57.103Z,95.6
2017-09-13T00:01:59.173Z,95.8
2017-09-13T00:03:01.061Z,95.3
2017-09-13T00:04:03.020Z,96.0
2017-09-13T00:05:05.104Z,96.0
2017-09-13T00:06:08.165Z,96.2
2017-09-13T00:07:10.654Z,96.1
2017-09-13T00:08:13.320Z,95.9
2017-09-13T00:09:15.564Z,96.1
2017-09-13T00:10:18.717Z,96.4
2017-09-13T00:11:21.042Z,96.0
2017-09-13T00:12:23.720Z,96.5
2017-09-13T00:13:25.947Z,95.6
2017-09-13T00:14:28.337Z,96.4
2017-09-13T00:15:30.557Z,95.9
2017-09-13T00:16:33.825Z,95.5
2017-09-13T00:17:36.107Z,96.5
2017-09-13T00:18:38.522Z,95.0
2017-09-13T00:19:43.501Z,95.4
2017-09-13T00:20:45.540Z,95.8
2017-09-13T00:22:58.122Z,94.9
2017-09-13T00:23:59.749Z,95.5
2017-09-13T00:25:01.381Z,95.0
2017-09-13T00:26:03.010Z,95.3
2017-09-13T00:27:04.638Z,94.6
2017-09-13T00:28:06.267Z,94.6
2017-09-13T00:29:07.904Z,94.5
2017-09-13T00:30:09.535Z,94.6
2017-09-13T00:31:11.159Z,95.2
2017-09-13T00:32:33.267Z,94.7
2017-09-13T00:33:34.893Z,95.2
2017-09-13T00:34:36.523Z,93.8
2017-09-13T00:35:38.155Z,94.4
2017-09-13T00:36:39.782Z,94.5
2017-09-13T00:37:41.421Z,93.9
2017-09-13T00:38:43.036Z,92.9
2017-09-13T00:39:44.659Z,93.0
2017-09-13T00:40:46.282Z,92.7
2017-09-13T00:41:47.911Z,92.4
2017-09-13T00:42:49.545Z,92.9
2017-09-13T00:43:51.167Z,91.9
2017-09-13T00:44:52.794Z,92.2
2017-09-13T00:45:54.417Z,92.8
2017-09-13T00:46:56.038Z,91.7
2017-09-13T00:47:57.671Z,92.0
2017-09-13T00:48:59.295Z,91.9
2017-09-13T00:50:00.924Z,92.3
2017-09-13T00:51:02.554Z,91.7
2017-09-13T00:52:04.182Z,91.2
2017-09-13T00:53:05.813Z,91.4
2017-09-13T00:54:07.433Z,91.7
2017-09-13T00:55:09.059Z,91.7
2017-09-13T00:56:10.687Z,91.2
2017-09-13T00:57:12.312Z,92.0
2017-09-13T00:58:13.937Z,91.9
2017-09-13T00:59:15.565Z,91.4
2017-09-13T01:00:17.193Z,91.0
2017-09-13T01:01:18.820Z,91.3
2017-09-13T01:02:20.445Z,91.4
2017-09-13T01:03:22.090Z,92.0
2017-09-13T01:04:23.718Z,91.7
2017-09-13T01:05:25.345Z,91.5
2017-09-13T01:06:26.972Z,91.2
2017-09-13T01:07:28.594Z,91.7
2017-09-13T01:08:30.220Z,91.6
2017-09-13T01:09:31.846Z,91.5
2017-09-13T01:10:33.470Z,91.8
2017-09-13T01:11:35.099Z,91.9
2017-09-13T01:12:36.741Z,91.3
2017-09-13T01:13:38.376Z,91.2
2017-09-13T01:14:39.997Z,91.6
2017-09-13T01:15:41.622Z,91.1
2017-09-13T01:16:43.255Z,91.6
2017-09-13T01:17:44.877Z,91.9
2017-09-13T01:18:46.502Z,90.7
2017-09-13T01:19:48.136Z,91.3
2017-09-13T01:20:49.761Z,91.1
2017-09-13T01:21:51.387Z,91.1
2017-09-13T01:22:53.011Z,90.8
2017-09-13T01:23:54.639Z,90.5
2017-09-13T01:24:56.269Z,90.6
2017-09-13T01:25:57.897Z,90.7
2017-09-13T01:26:59.524Z,91.1
2017-09-13T01:28:01.184Z,90.3
2017-09-13T01:29:02.813Z,90.6
2017-09-13T01:30:04.438Z,91.1
2017-09-13T01:31:06.068Z,90.0
2017-09-13T01:32:07.691Z,90.2
2017-09-13T01:33:09.320Z,90.3
2017-09-13T01:34:10.947Z,90.2
2017-09-13T01:35:12.579Z,91.0
2017-09-13T01:36:14.208Z,90.9
2017-09-13T01:37:15.835Z,90.5
2017-09-13T01:38:17.465Z,90.6
2017-09-13T01:39:19.091Z,90.2
2017-09-13T01:40:20.716Z,90.5
2017-09-13T01:41:22.340Z,90.0
2017-09-13T01:42:23.971Z,89.8
2017-09-13T01:43:25.600Z,89.9
2017-09-13T01:44:27.226Z,89.7
2017-09-13T01:45:28.853Z,89.6
2017-09-13T01:46:30.475Z,89.2
2017-09-13T01:47:32.102Z,88.9
2017-09-13T01:48:33.733Z,89.0
2017-09-13T01:49:35.360Z,88.2
2017-09-13T01:50:36.987Z,87.9
2017-09-13T01:51:38.615Z,88.5
2017-09-13T01:52:40.234Z,88.0
2017-09-13T01:53:41.868Z,88.1
2017-09-13T01:54:43.489Z,88.8
2017-09-13T01:55:45.116Z,88.8
2017-09-13T01:56:46.738Z,88.3
2017-09-13T01:57:48.364Z,87.6
2017-09-13T01:58:49.993Z,87.6
2017-09-13T01:59:51.617Z,87.5
2017-09-13T02:00:53.245Z,87.2
2017-09-13T02:01:54.870Z,87.6
2017-09-13T02:02:56.501Z,87.3
2017-09-13T02:03:58.126Z,87.9
2017-09-13T02:04:59.752Z,87.2
2017-09-13T02:06:01.380Z,86.6
2017-09-13T02:07:03.008Z,87.0
2017-09-13T02:08:04.633Z,87.0
2017-09-13T02:09:06.293Z,87.0
2017-09-13T02:10:07.890Z,86.5
2017-09-13T02:11:09.518Z,87.0
2017-09-13T02:12:11.143Z,86.6
2017-09-13T02:13:12.774Z,86.4
2017-09-13T02:14:14.398Z,86.8
2017-09-13T02:15:16.027Z,86.1
2017-09-13T02:16:17.657Z,86.8
2017-09-13T02:17:19.287Z,86.0
2017-09-13T02:18:20.914Z,86.8
2017-09-13T02:19:22.540Z,86.2
2017-09-13T02:20:24.166Z,86.3
2017-09-13T02:21:25.795Z,86.6
2017-09-13T02:22:27.422Z,86.5
2017-09-13T02:23:29.050Z,87.7
2017-09-13T02:24:30.682Z,87.2
2017-09-13T02:25:32.313Z,87.2
2017-09-13T02:26:33.939Z,88.5
2017-09-13T02:27:35.565Z,89.1
2017-09-13T02:28:37.191Z,89.5
2017-09-13T02:29:38.819Z,91.7
2017-09-13T02:30:40.450Z,93.8
2017-09-13T02:31:42.073Z,94.2
2017-09-13T02:32:43.701Z,95.3
2017-09-13T02:33:45.326Z,97.5
2017-09-13T02:34:46.955Z,98.2
2017-09-13T02:35:48.579Z,98.5
2017-09-13T02:36:50.211Z,97.8
2017-09-13T02:37:51.839Z,99.9
2017-09-13T02:38:53.473Z,100.0
2017-09-13T02:39:55.098Z,100.0
2017-09-13T02:40:56.726Z,100.0
2017-09-13T02:41:58.353Z,100.0
2017-09-13T02:42:59.986Z,100.0
2017-09-13T02:44:01.613Z,100.0
2017-09-13T02:45:03.240Z,100.0
2017-09-13T02:46:04.870Z,100.0
2017-09-13T02:47:06.496Z,100.0
2017-09-13T02:48:08.123Z,100.0
2017-09-13T02:49:09.751Z,100.0
2017-09-13T02:50:11.377Z,100.0
2017-09-13T02:51:13.006Z,100.0
2017-09-13T02:52:14.632Z,100.0
2017-09-13T02:53:16.260Z,100.0
2017-09-13T02:54:17.888Z,100.0
2017-09-13T02:55:19.518Z,100.0
2017-09-13T02:56:21.145Z,100.0
2017-09-13T02:57:22.772Z,100.0
2017-09-13T02:58:24.414Z,100.0
2017-09-13T02:59:26.042Z,100.0
2017-09-13T03:00:27.676Z,100.0
2017-09-13T03:01:29.301Z,100.0
2017-09-13T03:02:30.930Z,100.0
2017-09-13T03:03:32.558Z,100.0
2017-09-13T03:04:34.240Z,100.0
2017-09-13T03:05:35.933Z,100.0
2017-09-13T03:06:37.651Z,100.0
2017-09-13T03:07:39.340Z,100.0
2017-09-13T03:08:41.062Z,100.0
2017-09-13T03:09:42.797Z,100.0
2017-09-13T03:10:44.541Z,100.0
2017-09-13T03:11:46.247Z,100.0
2017-09-13T03:12:47.968Z,100.0
2017-09-13T03:13:49.645Z,100.0
2017-09-13T03:14:51.402Z,100.0
2017-09-13T03:15:53.097Z,100.0
2017-09-13T03:16:54.788Z,100.0
2017-09-13T03:17:56.504Z,100.0
2017-09-13T03:18:58.170Z,100.0
2017-09-13T03:19:59.896Z,100.0
2017-09-13T03:21:01.620Z,100.0
2017-09-13T03:22:03.307Z,100.0
2017-09-13T03:23:04.990Z,100.0
2017-09-13T03:24:06.706Z,100.0
2017-09-13T03:25:08.465Z,100.0
2017-09-13T03:26:10.239Z,100.0
2017-09-13T03:27:11.938Z,100.0
2017-09-13T03:28:13.642Z,100.0
2017-09-13T03:29:15.340Z,100.0
2017-09-13T03:30:17.057Z,100.0
2017-09-13T03:31:18.703Z,100.0
2017-09-13T03:32:20.385Z,100.0
2017-09-13T03:33:22.141Z,100.0
2017-09-13T03:34:23.818Z,100.0
2017-09-13T03:35:25.534Z,100.0
2017-09-13T03:36:27.260Z,100.0
2017-09-13T03:37:28.950Z,100.0
2017-09-13T03:38:30.659Z,100.0
2017-09-13T03:39:32.322Z,100.0
2017-09-13T03:40:34.028Z,100.0
2017-09-13T03:41:35.742Z,100.0
2017-09-13T03:42:37.449Z,100.0
2017-09-13T03:43:39.168Z,100.0
2017-09-13T03:44:40.929Z,100.0
2017-09-13T03:45:42.653Z,100.0
2017-09-13T03:46:44.380Z,100.0
2017-09-13T03:47:46.113Z,100.0
2017-09-13T03:48:47.841Z,100.0
2017-09-13T03:49:49.589Z,100.0
2017-09-13T03:50:51.311Z,100.0
2017-09-13T03:51:53.036Z,100.0
2017-09-13T03:52:54.753Z,100.0
2017-09-13T03:53:56.493Z,100.0
2017-09-13T03:54:58.245Z,100.0
2017-09-13T03:55:59.929Z,100.0
2017-09-13T03:57:01.645Z,100.0
2017-09-13T03:58:03.362Z,100.0
2017-09-13T03:59:05.115Z,100.0
2017-09-13T04:00:06.868Z,100.0
2017-09-13T04:01:08.628Z,100.0
2017-09-13T04:02:10.806Z,100.0
2017-09-13T04:03:13.665Z,100.0
2017-09-13T04:04:15.401Z,100.0
2017-09-13T04:05:17.146Z,100.0
2017-09-13T04:06:18.924Z,100.0
2017-09-13T04:07:20.681Z,100.0
2017-09-13T04:08:22.592Z,100.0
2017-09-13T04:09:24.409Z,100.0
2017-09-13T04:10:26.269Z,100.0
2017-09-13T04:11:28.008Z,100.0
2017-09-13T04:12:29.863Z,100.0
2017-09-13T04:13:31.650Z,100.0
2017-09-13T04:14:33.532Z,100.0
2017-09-13T04:15:35.237Z,100.0
2017-09-13T04:16:36.928Z,100.0
2017-09-13T04:17:38.603Z,100.0
2017-09-13T04:18:40.282Z,100.0
2017-09-13T04:19:41.982Z,100.0
2017-09-13T04:20:43.678Z,100.0
2017-09-13T04:21:45.354Z,100.0
2017-09-13T04:22:47.079Z,100.0
2017-09-13T04:23:48.828Z,100.0
2017-09-13T04:24:50.567Z,100.0
2017-09-13T04:25:52.325Z,100.0
2017-09-13T04:26:54.008Z,100.0
2017-09-13T04:27:55.714Z,100.0
2017-09-13T04:28:57.395Z,100.0
2017-09-13T04:29:59.085Z,100.0
2017-09-13T04:31:00.773Z,100.0
2017-09-13T04:32:02.553Z,100.0
2017-09-13T04:33:04.290Z,100.0
2017-09-13T04:34:06.027Z,100.0
2017-09-13T04:35:07.748Z,100.0
2017-09-13T04:36:09.487Z,100.0
2017-09-13T04:37:17.513Z,100.0
2017-09-13T04:38:19.024Z,100.0
2017-09-13T04:39:21.945Z,100.0
2017-09-13T04:40:32.306Z,100.0
2017-09-13T04:41:34.021Z,100.0
2017-09-13T04:42:35.801Z,100.0
2017-09-13T04:43:37.577Z,100.0
2017-09-13T04:44:39.329Z,100.0
2017-09-13T04:45:41.058Z,100.0
2017-09-13T04:46:42.852Z,100.0
2017-09-13T04:47:44.606Z,100.0
2017-09-13T04:48:46.464Z,100.0
2017-09-13T04:49:48.292Z,100.0
2017-09-13T04:50:49.981Z,100.0
2017-09-13T04:51:51.731Z,100.0
2017-09-13T04:52:53.440Z,100.0
2017-09-13T04:53:55.172Z,100.0
2017-09-13T04:54:56.881Z,100.0
2017-09-13T04:55:59.074Z,100.0
2017-09-13T04:57:01.213Z,100.0
2017-09-13T04:58:02.972Z,100.0
2017-09-13T04:59:04.723Z,100.0
2017-09-13T05:00:06.590Z,100.0
2017-09-13T05:01:08.256Z,100.0
2017-09-13T05:02:10.041Z,100.0
2017-09-13T05:03:11.817Z,100.0
2017-09-13T05:04:13.606Z,100.0
2017-09-13T05:05:15.362Z,100.0
2017-09-13T05:06:17.083Z,100.0
2017-09-13T05:07:18.792Z,100.0
2017-09-13T05:08:20.489Z,100.0
2017-09-13T05:09:22.254Z,100.0
2017-09-13T05:10:24.070Z,100.0
2017-09-13T05:11:25.911Z,100.0
2017-09-13T05:12:27.791Z,100.0
2017-09-13T05:13:29.827Z,100.0
2017-09-13T05:14:31.533Z,100.0
2017-09-13T05:15:33.515Z,100.0
2017-09-13T05:16:35.542Z,100.0
2017-09-13T05:17:37.295Z,100.0
2017-09-13T05:18:39.587Z,100.0
2017-09-13T05:19:41.386Z,100.0
2017-09-13T05:20:43.142Z,100.0
2017-09-13T05:21:44.904Z,100.0
2017-09-13T05:22:46.800Z,100.0
2017-09-13T05:23:48.529Z,100.0
2017-09-13T05:24:50.256Z,100.0
2017-09-13T05:25:52.164Z,100.0
2017-09-13T05:26:53.924Z,100.0
2017-09-13T05:27:55.984Z,100.0
2017-09-13T05:28:58.002Z,100.0
2017-09-13T05:30:00.143Z,100.0
2017-09-13T05:31:02.204Z,100.0
2017-09-13T05:32:04.417Z,100.0
2017-09-13T05:33:06.285Z,100.0
2017-09-13T05:34:07.996Z,100.0
2017-09-13T05:35:10.151Z,100.0
2017-09-13T05:36:14.176Z,100.0
2017-09-13T05:37:16.134Z,100.0
2017-09-13T05:38:18.403Z,100.0
2017-09-13T05:39:20.269Z,100.0
2017-09-13T05:40:22.071Z,100.0
2017-09-13T05:41:23.768Z,100.0
2017-09-13T05:42:25.535Z,100.0
2017-09-13T05:43:27.227Z,100.0
2017-09-13T05:44:28.947Z,100.0
2017-09-13T05:45:30.654Z,100.0
2017-09-13T05:46:32.513Z,100.0
2017-09-13T05:47:34.261Z,100.0
2017-09-13T05:48:35.959Z,100.0
2017-09-13T05:49:37.665Z,100.0
2017-09-13T05:50:39.378Z,100.0
2017-09-13T05:51:41.308Z,100.0
2017-09-13T05:52:43.071Z,100.0
2017-09-13T05:53:44.934Z,100.0
2017-09-13T05:54:46.706Z,100.0
2017-09-13T05:55:48.454Z,100.0
2017-09-13T05:56:50.291Z,100.0
2017-09-13T05:57:52.006Z,100.0
2017-09-13T05:58:53.704Z,100.0
2017-09-13T05:59:55.900Z,100.0
2017-09-13T06:00:58.270Z,100.0
2017-09-13T06:02:01.023Z,100.0
2017-09-13T06:03:02.747Z,100.0
2017-09-13T06:04:04.520Z,100.0
2017-09-13T06:05:07.133Z,100.0
2017-09-13T06:06:08.900Z,100.0
2017-09-13T06:07:10.646Z,100.0
2017-09-13T06:08:12.725Z,100.0
2017-09-13T06:09:14.405Z,100.0
2017-09-13T06:10:17.146Z,100.0
2017-09-13T06:11:19.322Z,100.0
2017-09-13T06:12:21.059Z,100.0
2017-09-13T06:13:22.827Z,100.0
2017-09-13T06:14:24.572Z,100.0
2017-09-13T06:15:26.301Z,100.0
2017-09-13T06:16:28.371Z,100.0
2017-09-13T06:17:30.457Z,100.0
2017-09-13T06:18:32.209Z,100.0
2017-09-13T06:19:33.981Z,100.0
2017-09-13T06:20:35.821Z,100.0
2017-09-13T06:21:38.076Z,100.0
2017-09-13T06:22:40.673Z,100.0
2017-09-13T06:23:43.149Z,100.0
2017-09-13T06:24:45.255Z,100.0
2017-09-13T06:25:47.025Z,100.0
2017-09-13T06:26:48.732Z,100.0
2017-09-13T06:27:51.252Z,100.0
2017-09-13T06:28:53.401Z,100.0
2017-09-13T06:29:55.691Z,100.0
2017-09-13T06:30:58.400Z,100.0
2017-09-13T06:32:00.168Z,100.0
2017-09-13T06:33:01.908Z,99.9
2017-09-13T06:34:03.685Z,100.0
2017-09-13T06:35:05.435Z,99.9
2017-09-13T06:36:07.183Z,99.0
2017-09-13T06:37:09.511Z,98.6
2017-09-13T06:38:11.762Z,98.0
2017-09-13T06:39:14.605Z,97.0
2017-09-13T06:40:17.460Z,96.1
2017-09-13T06:41:19.974Z,97.3
2017-09-13T06:42:21.726Z,96.6
2017-09-13T06:43:23.492Z,97.7
2017-09-13T06:44:25.841Z,97.5
2017-09-13T06:45:27.572Z,97.0
2017-09-13T06:46:29.293Z,95.5
2017-09-13T06:47:31.471Z,94.9
2017-09-13T06:48:33.829Z,94.4
2017-09-13T06:49:35.542Z,94.9
2017-09-13T06:50:37.341Z,94.5
2017-09-13T06:51:39.091Z,94.5
2017-09-13T06:52:40.830Z,93.3
2017-09-13T06:53:42.557Z,93.5
2017-09-13T06:54:44.307Z,92.8
2017-09-13T06:55:46.037Z,92.5
2017-09-13T06:56:47.831Z,93.3
2017-09-13T06:57:49.902Z,93.7
2017-09-13T06:58:51.769Z,93.9
2017-09-13T06:59:53.478Z,94.5
2017-09-13T07:00:55.181Z,94.1
2017-09-13T07:01:56.949Z,93.9
2017-09-13T07:02:58.753Z,94.5
2017-09-13T07:04:00.545Z,93.8
2017-09-13T07:05:02.333Z,93.2
2017-09-13T07:06:04.126Z,94.5
2017-09-13T07:07:05.947Z,93.1
2017-09-13T07:08:07.725Z,93.0
2017-09-13T07:09:09.480Z,91.9
2017-09-13T07:10:11.747Z,92.1
2017-09-13T07:11:14.022Z,92.5
2017-09-13T07:12:15.802Z,93.0
2017-09-13T07:13:18.640Z,93.2
2017-09-13T07:14:21.140Z,94.1
2017-09-13T07:15:23.055Z,94.0
2017-09-13T07:16:25.386Z,92.8
2017-09-13T07:17:27.244Z,91.7
2017-09-13T07:18:29.247Z,91.7
2017-09-13T07:19:30.979Z,91.6
2017-09-13T07:20:32.752Z,92.3
2017-09-13T07:21:34.845Z,91.2
2017-09-13T07:22:36.575Z,90.7
2017-09-13T07:23:38.730Z,90.3
2017-09-13T07:24:41.064Z,91.0
2017-09-13T07:25:42.760Z,91.5
2017-09-13T07:26:44.513Z,90.1
2017-09-13T07:27:46.609Z,89.8
2017-09-13T07:28:48.341Z,89.5
2017-09-13T07:29:50.626Z,88.6
2017-09-13T07:30:52.553Z,88.3
2017-09-13T07:31:54.321Z,88.3
2017-09-13T07:32:56.118Z,87.5
2017-09-13T07:33:57.818Z,87.1
2017-09-13T07:34:59.648Z,87.1
2017-09-13T07:36:01.574Z,87.1
2017-09-13T07:37:04.380Z,86.8
2017-09-13T07:38:06.415Z,86.1
2017-09-13T07:39:09.074Z,85.3
2017-09-13T07:40:10.999Z,85.6
2017-09-13T07:41:12.860Z,84.7
2017-09-13T07:42:14.620Z,83.7
2017-09-13T07:43:16.396Z,82.8
2017-09-13T07:44:18.116Z,82.4
2017-09-13T07:45:20.093Z,81.9
2017-09-13T07:46:22.456Z,82.5
2017-09-13T07:47:24.254Z,82.2
2017-09-13T07:48:26.005Z,81.4
2017-09-13T07:49:27.850Z,81.7
2017-09-13T07:50:29.632Z,82.1
2017-09-13T07:51:31.486Z,82.2
2017-09-13T07:52:33.212Z,83.8
2017-09-13T07:53:35.001Z,82.2
2017-09-13T07:54:36.738Z,81.7
2017-09-13T07:55:38.594Z,80.5
2017-09-13T07:56:40.357Z,81.2
2017-09-13T07:57:42.123Z,81.3
2017-09-13T07:58:43.844Z,79.7
2017-09-13T07:59:45.664Z,79.6
2017-09-13T08:00:47.464Z,80.0
2017-09-13T08:01:49.253Z,79.2
2017-09-13T08:02:51.049Z,78.9
2017-09-13T08:03:52.787Z,79.0
2017-09-13T08:04:54.728Z,78.6
2017-09-13T08:05:56.675Z,78.8
2017-09-13T08:06:58.411Z,78.8
2017-09-13T08:08:00.210Z,78.5
2017-09-13T08:09:02.055Z,78.5
2017-09-13T08:10:03.824Z,80.1
2017-09-13T08:11:06.137Z,80.1
2017-09-13T08:12:07.888Z,80.1
2017-09-13T08:13:09.643Z,79.7
2017-09-13T08:14:11.465Z,79.3
2017-09-13T08:15:14.012Z,79.0
2017-09-13T08:16:16.412Z,79.1
2017-09-13T08:17:18.128Z,79.9
2017-09-13T08:18:19.909Z,79.7
2017-09-13T08:19:21.703Z,80.8
2017-09-13T08:20:24.729Z,80.7
2017-09-13T08:21:26.982Z,81.2
2017-09-13T08:22:28.731Z,81.3
2017-09-13T08:23:30.926Z,80.8
2017-09-13T08:24:32.687Z,80.7
2017-09-13T08:25:34.478Z,81.0
2017-09-13T08:26:36.238Z,80.4
2017-09-13T08:27:38.016Z,79.3
2017-09-13T08:28:39.857Z,79.0
2017-09-13T08:29:41.606Z,78.8
2017-09-13T08:30:43.564Z,79.3
2017-09-13T08:31:45.893Z,79.0
2017-09-13T08:32:47.682Z,78.4
2017-09-13T08:33:49.447Z,78.5
2017-09-13T08:34:51.217Z,78.3
2017-09-13T08:35:52.990Z,76.8
2017-09-13T08:36:54.755Z,76.3
2017-09-13T08:37:56.543Z,75.1
2017-09-13T08:38:58.408Z,76.2
2017-09-13T08:40:01.415Z,76.6
2017-09-13T08:41:03.676Z,76.3
2017-09-13T08:42:05.434Z,76.1
2017-09-13T08:43:07.186Z,75.5
2017-09-13T08:44:08.988Z,75.4
2017-09-13T08:45:10.759Z,75.9
2017-09-13T08:46:12.524Z,75.0
2017-09-13T08:47:14.282Z,75.3
2017-09-13T08:48:16.092Z,75.7
2017-09-13T08:49:17.859Z,74.5
2017-09-13T08:50:19.616Z,75.2
2017-09-13T08:51:21.363Z,73.4
2017-09-13T08:52:23.187Z,73.6
2017-09-13T08:53:24.994Z,72.9
2017-09-13T08:54:26.751Z,73.7
2017-09-13T08:55:28.530Z,72.6
2017-09-13T08:56:30.366Z,72.3
2017-09-13T08:57:32.229Z,72.7
2017-09-13T08:58:34.575Z,72.3
2017-09-13T08:59:37.037Z,72.0
2017-09-13T09:00:39.527Z,73.4
2017-09-13T09:01:41.753Z,72.3
2017-09-13T09:02:43.552Z,73.1
2017-09-13T09:03:45.343Z,73.4
2017-09-13T09:04:47.083Z,73.1
2017-09-13T09:05:48.846Z,73.6
2017-09-13T09:06:50.638Z,73.3
2017-09-13T09:07:52.387Z,73.7
2017-09-13T09:08:54.128Z,73.7
2017-09-13T09:09:55.948Z,74.2
2017-09-13T09:10:57.727Z,73.6
2017-09-13T09:12:00.029Z,73.8
2017-09-13T09:13:01.977Z,73.6
2017-09-13T09:14:03.757Z,74.5
2017-09-13T09:15:05.853Z,74.5
2017-09-13T09:16:07.468Z,73.7
2017-09-13T09:17:09.220Z,73.8
2017-09-13T09:18:10.957Z,74.2
2017-09-13T09:19:12.715Z,75.5
2017-09-13T09:20:14.488Z,75.9
2017-09-13T09:21:16.243Z,75.5
2017-09-13T09:22:18.006Z,75.7
2017-09-13T09:23:19.776Z,76.5
2017-09-13T09:24:21.646Z,76.5
2017-09-13T09:25:23.809Z,76.8
2017-09-13T09:26:25.636Z,76.8
2017-09-13T09:27:27.560Z,76.8
2017-09-13T09:28:29.341Z,76.1
2017-09-13T09:29:31.435Z,76.3
2017-09-13T09:30:33.190Z,75.1
2017-09-13T09:31:35.026Z,74.6
2017-09-13T09:32:36.913Z,74.0
2017-09-13T09:33:38.643Z,73.7
2017-09-13T09:34:40.416Z,73.6
2017-09-13T09:35:42.203Z,75.3
2017-09-13T09:36:43.981Z,74.5
2017-09-13T09:37:45.885Z,74.1
2017-09-13T09:38:47.629Z,73.5
2017-09-13T09:39:49.686Z,72.5
2017-09-13T09:40:51.553Z,71.8
2017-09-13T09:41:53.271Z,71.7
2017-09-13T09:42:55.073Z,72.3
2017-09-13T09:43:56.969Z,72.0
2017-09-13T09:44:58.764Z,71.6
2017-09-13T09:46:00.517Z,70.3
2017-09-13T09:47:02.247Z,69.7
2017-09-13T09:48:04.587Z,70.0
2017-09-13T09:49:06.988Z,70.5
2017-09-13T09:50:09.645Z,71.0
2017-09-13T09:51:11.437Z,70.9
2017-09-13T09:52:13.206Z,70.6
2017-09-13T09:53:14.971Z,70.9
2017-09-13T09:54:16.841Z,72.0
2017-09-13T09:55:18.579Z,70.3
2017-09-13T09:56:20.324Z,71.9
2017-09-13T09:57:22.123Z,70.6
2017-09-13T09:58:23.867Z,71.6
2017-09-13T09:59:26.073Z,71.0
2017-09-13T10:00:28.328Z,70.9
2017-09-13T10:01:30.073Z,72.0
2017-09-13T10:02:31.940Z,71.5
2017-09-13T10:03:33.674Z,71.8
2017-09-13T10:04:35.445Z,71.3
2017-09-13T10:05:37.197Z,72.0
2017-09-13T10:06:38.984Z,71.0
2017-09-13T10:07:40.772Z,71.6
2017-09-13T10:08:42.527Z,71.6
2017-09-13T10:09:44.768Z,70.9
2017-09-13T10:10:47.270Z,72.4
2017-09-13T10:11:49.050Z,70.9
2017-09-13T10:12:50.831Z,71.3
2017-09-13T10:13:52.955Z,72.4
2017-09-13T10:14:54.982Z,72.1
2017-09-13T10:15:56.788Z,71.8
2017-09-13T10:16:59.166Z,72.1
2017-09-13T10:18:01.028Z,71.4
2017-09-13T10:19:02.835Z,71.4
2017-09-13T10:20:05.772Z,71.4
2017-09-13T10:21:07.786Z,71.4
2017-09-13T10:22:10.612Z,70.6
2017-09-13T10:23:13.272Z,71.2
2017-09-13T10:24:15.155Z,71.0
2017-09-13T10:25:17.792Z,70.0
2017-09-13T10:26:19.996Z,70.4
2017-09-13T10:27:21.936Z,69.8
2017-09-13T10:28:23.893Z,68.9
2017-09-13T10:29:25.733Z,68.8
2017-09-13T10:30:28.122Z,69.0
2017-09-13T10:31:30.119Z,68.7
2017-09-13T10:32:31.995Z,69.0
2017-09-13T10:33:33.869Z,69.9
2017-09-13T10:34:35.752Z,66.8
2017-09-13T10:35:37.723Z,65.9
2017-09-13T10:36:39.683Z,66.6
2017-09-13T10:37:42.252Z,67.5
2017-09-13T10:38:44.074Z,68.7
2017-09-13T10:39:46.892Z,69.7
2017-09-13T10:40:48.614Z,68.1
2017-09-13T10:41:50.410Z,67.8
2017-09-13T10:42:52.199Z,68.6
2017-09-13T10:43:54.037Z,69.7
2017-09-13T10:44:55.912Z,70.2
2017-09-13T10:45:57.709Z,68.9
2017-09-13T10:46:59.648Z,67.7
2017-09-13T10:48:01.399Z,67.8
2017-09-13T10:49:03.133Z,68.1
2017-09-13T10:50:05.008Z,68.9
2017-09-13T10:51:07.189Z,65.9
2017-09-13T10:52:09.144Z,64.8
2017-09-13T10:53:11.093Z,64.5
2017-09-13T10:54:12.837Z,65.0
2017-09-13T10:55:14.613Z,64.0
2017-09-13T10:56:16.380Z,65.1
2017-09-13T10:57:18.244Z,66.0
2017-09-13T10:58:20.074Z,62.9
2017-09-13T10:59:21.833Z,60.7
2017-09-13T11:00:23.685Z,58.1
2017-09-13T11:01:25.456Z,58.2
2017-09-13T11:02:27.294Z,58.1
2017-09-13T11:03:29.105Z,59.3
2017-09-13T11:04:30.873Z,61.7
2017-09-13T11:05:32.675Z,59.1
2017-09-13T11:06:34.395Z,58.3
2017-09-13T11:07:36.218Z,57.1
2017-09-13T11:08:38.113Z,56.8
2017-09-13T11:09:39.870Z,57.5
2017-09-13T11:10:41.633Z,57.0
2017-09-13T11:11:43.424Z,57.0
2017-09-13T11:12:45.244Z,56.2
2017-09-13T11:13:47.051Z,57.7
2017-09-13T11:14:48.869Z,60.5
2017-09-13T11:15:50.592Z,59.9
2017-09-13T11:16:52.374Z,60.9
2017-09-13T11:17:56.083Z,61.4
2017-09-13T11:18:57.926Z,59.1
2017-09-13T11:19:59.662Z,59.9
2017-09-13T11:21:01.451Z,60.3
2017-09-13T11:22:03.245Z,59.7
2017-09-13T11:23:04.988Z,57.2
2017-09-13T11:24:06.815Z,56.4
2017-09-13T11:25:08.560Z,54.6
2017-09-13T11:26:10.281Z,53.1
2017-09-13T11:27:12.065Z,53.1
2017-09-13T11:28:13.798Z,53.2
2017-09-13T11:29:15.568Z,55.0
2017-09-13T11:30:17.292Z,55.6
2017-09-13T11:31:19.047Z,57.8
2017-09-13T11:32:20.859Z,58.3
2017-09-13T11:33:22.663Z,58.5
2017-09-13T11:34:24.439Z,59.0
2017-09-13T11:35:26.266Z,55.7
2017-09-13T11:36:28.002Z,58.4
2017-09-13T11:37:29.740Z,56.8
2017-09-13T11:38:31.497Z,58.8
2017-09-13T11:39:33.322Z,58.5
2017-09-13T11:40:35.038Z,60.8
2017-09-13T11:41:36.851Z,62.1
2017-09-13T11:42:38.623Z,61.2
2017-09-13T11:43:40.402Z,58.9
2017-09-13T11:44:42.315Z,55.4
2017-09-13T11:45:44.932Z,56.4
2017-09-13T11:46:47.268Z,51.4
2017-09-13T11:47:48.993Z,51.7
2017-09-13T11:48:50.850Z,50.8
2017-09-13T11:49:52.641Z,50.1
2017-09-13T11:50:54.463Z,47.8
2017-09-13T11:51:56.253Z,46.6
2017-09-13T11:52:58.020Z,48.3
2017-09-13T11:53:59.826Z,51.7
2017-09-13T11:55:01.544Z,55.1
2017-09-13T11:56:03.318Z,56.7
2017-09-13T11:57:05.071Z,57.0
2017-09-13T11:58:06.869Z,57.7
2017-09-13T11:59:08.707Z,57.4
2017-09-13T12:00:10.472Z,57.1
2017-09-13T12:01:12.833Z,54.9
2017-09-13T12:02:14.581Z,54.7
2017-09-13T12:03:16.339Z,56.5
2017-09-13T12:04:18.543Z,59.0
2017-09-13T12:05:20.293Z,59.6
2017-09-13T12:06:22.028Z,61.7
2017-09-13T12:07:23.859Z,58.7
2017-09-13T12:08:25.616Z,55.7
2017-09-13T12:09:27.407Z,51.4
2017-09-13T12:10:29.134Z,50.4
2017-09-13T12:11:30.907Z,50.6
2017-09-13T12:12:32.666Z,51.8
2017-09-13T12:13:34.581Z,51.4
2017-09-13T12:14:36.385Z,53.8
2017-09-13T12:15:38.177Z,53.1
2017-09-13T12:16:39.914Z,51.2
2017-09-13T12:17:41.676Z,53.1
2017-09-13T12:18:43.532Z,55.5
2017-09-13T12:19:45.339Z,56.4
2017-09-13T12:20:47.117Z,52.6
2017-09-13T12:21:48.928Z,50.7
2017-09-13T12:22:50.685Z,49.5
2017-09-13T12:23:52.429Z,54.3
2017-09-13T12:24:54.197Z,58.5
2017-09-13T12:25:55.968Z,59.2
2017-09-13T12:26:57.813Z,60.9
2017-09-13T12:27:59.583Z,61.3
2017-09-13T12:29:01.417Z,61.3
2017-09-13T12:30:03.175Z,62.4
2017-09-13T12:31:04.925Z,62.0
2017-09-13T12:32:06.855Z,63.2
2017-09-13T12:33:08.614Z,63.1
2017-09-13T12:34:10.370Z,63.8
2017-09-13T12:35:12.203Z,63.2
2017-09-13T12:36:14.051Z,63.4
2017-09-13T12:37:15.792Z,63.0
2017-09-13T12:38:17.910Z,63.3
2017-09-13T12:39:19.633Z,64.4
2017-09-13T12:40:21.423Z,64.1
2017-09-13T12:41:23.209Z,63.5
2017-09-13T12:42:25.375Z,64.4
2017-09-13T12:43:27.105Z,64.9
2017-09-13T12:44:29.622Z,65.2
2017-09-13T12:45:31.452Z,65.1
2017-09-13T12:46:33.272Z,65.0
2017-09-13T12:47:35.053Z,67.5
2017-09-13T12:48:36.797Z,67.9
2017-09-13T12:49:38.571Z,65.0
2017-09-13T12:50:40.347Z,65.0
2017-09-13T12:51:42.097Z,65.6
2017-09-13T12:52:43.903Z,65.8
2017-09-13T12:53:46.038Z,66.3
2017-09-13T12:54:47.868Z,66.5
2017-09-13T12:55:49.629Z,66.8
2017-09-13T12:56:51.410Z,68.2
2017-09-13T12:57:53.150Z,67.9
2017-09-13T12:58:54.987Z,68.1
2017-09-13T12:59:56.755Z,68.1
2017-09-13T13:00:58.517Z,68.7
2017-09-13T13:02:00.308Z,68.0
2017-09-13T13:03:02.069Z,68.0
2017-09-13T13:04:03.872Z,67.9
2017-09-13T13:05:05.807Z,67.8
2017-09-13T13:06:07.634Z,68.1
2017-09-13T13:07:09.492Z,67.8
2017-09-13T13:08:11.618Z,68.7
2017-09-13T13:09:13.532Z,67.9
2017-09-13T13:11:25.191Z,68.9
2017-09-13T13:12:27.176Z,68.6
2017-09-13T13:13:29.161Z,67.9
2017-09-13T13:14:30.946Z,69.0
2017-09-13T13:15:35.875Z,67.6
2017-09-13T13:16:38.438Z,67.1
2017-09-13T13:17:40.437Z,67.6
2017-09-13T13:18:42.444Z,67.1
2017-09-13T13:19:44.654Z,66.7
2017-09-13T13:20:46.797Z,66.4
2017-09-13T13:21:48.849Z,66.2
2017-09-13T13:22:51.401Z,66.6
2017-09-13T13:23:53.283Z,68.4
2017-09-13T13:24:56.009Z,66.8
2017-09-13T13:25:57.941Z,66.1
2017-09-13T13:27:00.243Z,64.4
2017-09-13T13:28:02.399Z,65.8
2017-09-13T13:29:04.915Z,65.8
2017-09-13T13:30:07.313Z,65.2
2017-09-13T13:31:09.416Z,64.2
2017-09-13T13:32:11.988Z,64.9
2017-09-13T13:33:14.198Z,65.9
2017-09-13T13:34:16.920Z,66.2
2017-09-13T13:35:18.613Z,66.5
2017-09-13T13:36:21.704Z,67.2
2017-09-13T13:37:24.570Z,66.6
2017-09-13T13:38:27.527Z,67.8